Terminal Aerodrome Forecast
Issued by NWS

Current Version | Previous Version | Text Only | Print | Product List | Glossary Off
Versions: 1 2 3 4 5 6 7 8 9 10 11 12 13 14 15 16 17 18 19 20

012
FTUS41 KPBZ 300521
TAFHLG
TAF
KHLG 300521Z 3006/3106 17004KT P6SM BKN100
     FM300800 VRB03KT 4SM BR SCT100
      TEMPO 3009/3012 2SM BR
     FM301400 24003KT P6SM SCT040=

USA.gov is the U.S. government's official web portal to all federal, state and local government web resources and services.